createdAt,value
2024-03-05T00:00:54.289Z,8.98
2024-03-05T00:01:56.716Z,8.97
2024-03-05T00:02:58.341Z,8.98
2024-03-05T00:04:01.124Z,9.06
2024-03-05T00:05:04.948Z,9.07
2024-03-05T00:06:07.645Z,9.00
2024-03-05T00:07:09.216Z,9.03
2024-03-05T00:08:11.151Z,8.98
2024-03-05T00:09:12.758Z,9.09
2024-03-05T00:10:14.732Z,9.15
2024-03-05T00:11:16.605Z,9.14
2024-03-05T00:12:18.788Z,9.12
2024-03-05T00:13:20.581Z,9.09
2024-03-05T00:14:22.524Z,9.07
2024-03-05T00:15:24.097Z,9.00
2024-03-05T00:16:25.884Z,9.09
2024-03-05T00:17:27.991Z,9.07
2024-03-05T00:18:30.561Z,9.10
2024-03-05T00:19:32.360Z,9.07
2024-03-05T00:20:33.995Z,9.06
2024-03-05T00:21:35.891Z,9.09
2024-03-05T00:22:37.388Z,9.04
2024-03-05T00:23:39.758Z,9.00
2024-03-05T00:24:41.268Z,9.04
2024-03-05T00:25:43.393Z,9.09
2024-03-05T00:26:44.895Z,9.13
2024-03-05T00:27:46.415Z,9.29
2024-03-05T00:28:48.044Z,9.28
2024-03-05T00:29:49.632Z,9.18
2024-03-05T00:30:51.527Z,9.13
2024-03-05T00:31:53.081Z,9.26
2024-03-05T00:32:54.708Z,9.24
2024-03-05T00:33:57.060Z,9.24
2024-03-05T00:34:58.623Z,9.22
2024-03-05T00:36:00.236Z,9.16
2024-03-05T00:37:01.749Z,9.09
2024-03-05T00:38:09.153Z,9.01
2024-03-05T00:39:14.029Z,8.98
2024-03-05T00:40:15.706Z,9.01
2024-03-05T00:41:19.430Z,9.00
2024-03-05T00:42:21.008Z,9.00
2024-03-05T00:43:23.023Z,8.98
2024-03-05T00:44:24.898Z,9.02
2024-03-05T00:45:26.960Z,9.02
2024-03-05T00:46:28.557Z,9.06
2024-03-05T00:47:31.280Z,9.00
2024-03-05T00:48:33.213Z,9.04
2024-03-05T00:49:34.891Z,9.01
2024-03-05T00:50:36.488Z,9.05
2024-03-05T00:51:37.997Z,8.97
2024-03-05T00:52:39.650Z,8.95
2024-03-05T00:53:41.244Z,8.91
2024-03-05T00:54:42.836Z,8.93
2024-03-05T00:55:45.534Z,8.97
2024-03-05T00:56:47.374Z,9.00
2024-03-05T00:57:48.953Z,8.97
2024-03-05T00:58:51.642Z,8.96
2024-03-05T00:59:54.855Z,8.99
2024-03-05T01:00:56.519Z,9.12
2024-03-05T01:01:58.726Z,9.27
2024-03-05T01:03:00.426Z,9.35
2024-03-05T01:04:01.994Z,9.26
2024-03-05T01:05:06.628Z,9.14
2024-03-05T01:06:08.557Z,9.11
2024-03-05T01:07:11.402Z,9.17
2024-03-05T01:08:13.734Z,9.11
2024-03-05T01:09:20.259Z,9.05
2024-03-05T01:10:21.923Z,8.98
2024-03-05T01:11:23.495Z,9.05
2024-03-05T01:12:25.100Z,9.17
2024-03-05T01:13:28.081Z,9.28
2024-03-05T01:14:29.557Z,9.22
2024-03-05T01:15:31.200Z,9.18
2024-03-05T01:16:32.831Z,9.12
2024-03-05T01:17:34.372Z,9.10
2024-03-05T01:18:35.967Z,9.02
2024-03-05T01:19:37.749Z,8.94
2024-03-05T01:20:42.612Z,8.93
2024-03-05T01:21:44.201Z,8.92
2024-03-05T01:22:49.361Z,8.89
2024-03-05T01:23:50.973Z,8.87
2024-03-05T01:24:52.472Z,8.92
2024-03-05T01:25:54.117Z,8.90
2024-03-05T01:26:55.719Z,8.88
2024-03-05T01:27:59.146Z,8.87
2024-03-05T01:29:00.784Z,8.82
2024-03-05T01:30:02.497Z,8.79
2024-03-05T01:31:04.323Z,8.86
2024-03-05T01:32:06.137Z,8.87
2024-03-05T01:33:11.870Z,8.85
2024-03-05T01:34:13.432Z,8.83
2024-03-05T01:35:15.150Z,8.85
2024-03-05T01:36:17.073Z,8.84
2024-03-05T01:37:18.687Z,8.84
2024-03-05T01:38:21.620Z,8.80
2024-03-05T01:39:23.748Z,8.81
2024-03-05T01:40:25.885Z,8.78
2024-03-05T01:41:27.912Z,8.77
2024-03-05T01:42:29.392Z,8.82
2024-03-05T01:43:31.659Z,8.81
2024-03-05T01:44:34.556Z,8.79
2024-03-05T01:45:36.117Z,8.78
2024-03-05T01:46:37.937Z,8.78
2024-03-05T01:47:39.572Z,8.79
2024-03-05T01:48:45.091Z,8.81
2024-03-05T01:49:46.732Z,8.75
2024-03-05T01:50:48.556Z,8.74
2024-03-05T01:51:50.605Z,8.72
2024-03-05T01:52:52.228Z,8.70
2024-03-05T01:53:53.903Z,8.67
2024-03-05T01:55:01.494Z,8.64
2024-03-05T01:56:03.407Z,8.63
2024-03-05T01:57:05.128Z,8.63
2024-03-05T01:58:09.813Z,8.62
2024-03-05T01:59:12.123Z,8.60
2024-03-05T02:00:16.774Z,8.60
2024-03-05T02:01:19.067Z,8.62
2024-03-05T02:02:20.825Z,8.61
2024-03-05T02:03:22.471Z,8.58
2024-03-05T02:04:25.057Z,8.59
2024-03-05T02:05:26.774Z,8.60
2024-03-05T02:06:32.233Z,8.62
2024-03-05T02:07:36.691Z,8.66
2024-03-05T02:08:39.040Z,8.64
2024-03-05T02:09:40.635Z,8.62
2024-03-05T02:10:42.289Z,8.60
2024-03-05T02:12:48.304Z,8.64
2024-03-05T02:13:49.974Z,8.64
2024-03-05T02:14:52.702Z,8.65
2024-03-05T02:15:55.578Z,8.68
2024-03-05T02:16:59.316Z,8.74
2024-03-05T02:18:01.050Z,8.74
2024-03-05T02:19:04.427Z,8.74
2024-03-05T02:20:10.932Z,8.74
2024-03-05T02:21:22.313Z,8.73
2024-03-05T02:22:23.937Z,8.71
2024-03-05T02:23:25.735Z,8.68
2024-03-05T02:24:27.952Z,8.71
2024-03-05T02:25:32.383Z,8.72
2024-03-05T02:26:34.618Z,8.70
2024-03-05T02:27:40.095Z,8.68
2024-03-05T02:28:41.778Z,8.70
2024-03-05T02:29:43.990Z,8.70
2024-03-05T02:30:45.837Z,8.69
2024-03-05T02:31:47.714Z,8.69
2024-03-05T02:32:49.710Z,8.68
2024-03-05T02:33:51.607Z,8.72
2024-03-05T02:34:56.035Z,8.70
2024-03-05T02:35:58.709Z,8.68
2024-03-05T02:37:00.806Z,8.67
2024-03-05T02:38:02.479Z,8.71
2024-03-05T02:39:04.047Z,8.74
2024-03-05T02:40:10.242Z,8.77
2024-03-05T02:41:12.054Z,8.75
2024-03-05T02:42:13.691Z,8.69
2024-03-05T02:43:15.256Z,8.69
2024-03-05T02:44:19.758Z,8.69
2024-03-05T02:45:21.344Z,8.68
2024-03-05T02:46:22.968Z,8.71
2024-03-05T02:47:25.358Z,8.70
2024-03-05T02:48:27.079Z,8.66
2024-03-05T02:49:28.728Z,8.67
2024-03-05T02:50:30.343Z,8.64
2024-03-05T02:51:31.954Z,8.63
2024-03-05T02:52:33.548Z,8.62
2024-03-05T02:53:36.161Z,8.62
2024-03-05T02:54:37.782Z,8.65
2024-03-05T02:55:40.154Z,8.64
2024-03-05T02:56:41.768Z,8.64
2024-03-05T02:57:43.592Z,8.64
2024-03-05T02:58:45.210Z,8.63
2024-03-05T02:59:47.113Z,8.60
2024-03-05T03:00:48.732Z,8.61
2024-03-05T03:01:51.521Z,8.63
2024-03-05T03:02:53.205Z,8.62
2024-03-05T03:03:54.776Z,8.63
2024-03-05T03:04:56.498Z,8.66
2024-03-05T03:05:58.087Z,8.69
2024-03-05T03:06:59.676Z,8.69
2024-03-05T03:08:01.209Z,8.66
2024-03-05T03:09:04.237Z,8.63
2024-03-05T03:10:06.623Z,8.65
2024-03-05T03:11:08.885Z,8.75
2024-03-05T03:12:10.528Z,8.84
2024-03-05T03:13:12.662Z,8.83
2024-03-05T03:14:14.432Z,8.86
2024-03-05T03:15:19.048Z,8.83
2024-03-05T03:16:20.638Z,8.76
2024-03-05T03:17:22.286Z,8.69
2024-03-05T03:18:23.874Z,8.68
2024-03-05T03:19:25.490Z,8.67
2024-03-05T03:20:27.059Z,8.73
2024-03-05T03:21:28.523Z,8.71
2024-03-05T03:22:30.195Z,8.71
2024-03-05T03:23:31.807Z,8.74
2024-03-05T03:24:33.910Z,8.74
2024-03-05T03:25:36.952Z,8.69
2024-03-05T03:26:39.545Z,8.74
2024-03-05T03:27:41.997Z,8.72
2024-03-05T03:28:43.623Z,8.74
2024-03-05T03:29:45.283Z,8.68
2024-03-05T03:30:46.919Z,8.63
2024-03-05T03:31:48.566Z,8.61
2024-03-05T03:32:51.226Z,8.67
2024-03-05T03:33:53.265Z,8.70
2024-03-05T03:34:55.318Z,8.68
2024-03-05T03:35:57.111Z,8.63
2024-03-05T03:36:58.737Z,8.59
2024-03-05T03:38:01.822Z,8.60
2024-03-05T03:39:03.870Z,8.59
2024-03-05T03:40:09.330Z,8.60
2024-03-05T03:41:10.815Z,8.54
2024-03-05T03:42:12.299Z,8.54
2024-03-05T03:43:15.926Z,8.52
2024-03-05T03:44:18.620Z,8.52
2024-03-05T03:45:20.591Z,8.50
2024-03-05T03:46:22.434Z,8.47
2024-03-05T03:47:24.885Z,8.62
2024-03-05T03:48:26.356Z,8.72
2024-03-05T03:49:27.955Z,8.83
2024-03-05T03:50:29.820Z,8.74
2024-03-05T03:51:31.427Z,8.70
2024-03-05T03:52:34.075Z,8.64
2024-03-05T03:53:38.206Z,8.63
2024-03-05T03:54:39.822Z,8.63
2024-03-05T03:55:41.471Z,8.62
2024-03-05T03:56:43.101Z,8.59
2024-03-05T03:57:45.098Z,8.58
2024-03-05T03:58:46.702Z,8.56
2024-03-05T03:59:48.453Z,8.55
2024-03-05T04:00:50.576Z,8.56
2024-03-05T04:01:52.401Z,8.61
2024-03-05T04:02:54.197Z,8.63
2024-03-05T04:03:56.202Z,8.59
2024-03-05T04:04:57.830Z,8.62
2024-03-05T04:06:00.394Z,8.64
2024-03-05T04:07:02.010Z,8.61
2024-03-05T04:08:05.111Z,8.66
2024-03-05T04:09:10.422Z,8.66
2024-03-05T04:10:12.455Z,8.65
2024-03-05T04:11:14.163Z,8.67
2024-03-05T04:12:15.836Z,8.67
2024-03-05T04:13:18.947Z,8.68
2024-03-05T04:14:20.837Z,8.70
2024-03-05T04:15:23.032Z,8.69
2024-03-05T04:16:24.872Z,8.65
2024-03-05T04:17:26.934Z,8.62
2024-03-05T04:18:28.547Z,8.63
2024-03-05T04:19:32.096Z,8.65
2024-03-05T04:20:33.711Z,8.67
2024-03-05T04:22:06.666Z,8.59
2024-03-05T04:23:10.397Z,8.66
2024-03-05T04:24:15.314Z,8.64
2024-03-05T04:25:17.014Z,8.67
2024-03-05T04:26:24.619Z,8.68
2024-03-05T04:27:28.238Z,8.73
2024-03-05T04:28:37.395Z,8.79
2024-03-05T04:29:43.001Z,8.78
2024-03-05T04:30:48.270Z,8.75
2024-03-05T04:32:10.145Z,8.71
2024-03-05T04:33:12.411Z,8.65
2024-03-05T04:34:14.460Z,8.64
2024-03-05T04:35:17.542Z,8.59
2024-03-05T04:36:19.036Z,8.55
2024-03-05T04:37:20.497Z,8.53
2024-03-05T04:38:22.518Z,8.48
2024-03-05T04:39:24.128Z,8.52
2024-03-05T04:40:25.857Z,8.52
2024-03-05T04:41:27.514Z,8.50
2024-03-05T04:42:28.983Z,8.42
2024-03-05T04:43:30.530Z,8.40
2024-03-05T04:44:35.102Z,8.39
2024-03-05T04:45:39.027Z,8.34
2024-03-05T04:46:41.089Z,8.32
2024-03-05T04:47:42.895Z,8.34
2024-03-05T04:48:44.499Z,8.33
2024-03-05T04:49:45.986Z,8.39
2024-03-05T04:50:47.475Z,8.48
2024-03-05T04:51:50.748Z,8.47
2024-03-05T04:52:53.969Z,8.48
2024-03-05T04:53:56.745Z,8.46
2024-03-05T04:54:58.522Z,8.49
2024-03-05T04:56:00.077Z,8.49
2024-03-05T04:57:01.615Z,8.41
2024-03-05T04:58:03.158Z,8.43
2024-03-05T04:59:05.749Z,8.54
2024-03-05T05:00:21.419Z,8.55
2024-03-05T05:01:23.586Z,8.53
2024-03-05T05:02:25.230Z,8.63
2024-03-05T05:03:27.683Z,8.63
2024-03-05T05:04:29.193Z,8.54
2024-03-05T05:05:32.910Z,8.53
2024-03-05T05:06:34.511Z,8.58
2024-03-05T05:07:36.057Z,8.51
2024-03-05T05:08:37.921Z,8.51
2024-03-05T05:09:41.014Z,8.54
2024-03-05T05:10:42.884Z,8.48
2024-03-05T05:11:44.551Z,8.45
2024-03-05T05:12:46.426Z,8.46
2024-03-05T05:13:48.163Z,8.44
2024-03-05T05:14:50.569Z,8.43
2024-03-05T05:15:52.185Z,8.49
2024-03-05T05:16:53.711Z,8.48
2024-03-05T05:17:55.396Z,8.46
2024-03-05T05:18:56.909Z,8.47
2024-03-05T05:20:01.441Z,8.49
2024-03-05T05:21:03.313Z,8.61
2024-03-05T05:22:05.874Z,8.64
2024-03-05T05:23:07.406Z,8.60
2024-03-05T05:24:08.884Z,8.62
2024-03-05T05:25:10.451Z,8.63
2024-03-05T05:26:13.993Z,8.63
2024-03-05T05:27:15.601Z,8.62
2024-03-05T05:28:17.441Z,8.67
2024-03-05T05:29:27.270Z,8.61
2024-03-05T05:30:38.386Z,8.50
2024-03-05T05:31:39.965Z,8.56
2024-03-05T05:32:41.888Z,8.61
2024-03-05T05:33:43.520Z,8.67
2024-03-05T05:34:45.097Z,8.64
2024-03-05T05:35:46.659Z,8.63
2024-03-05T05:36:48.308Z,8.60
2024-03-05T05:37:49.975Z,8.61
2024-03-05T05:38:51.533Z,8.57
2024-03-05T05:39:53.219Z,8.63
2024-03-05T05:40:54.762Z,8.60
2024-03-05T05:41:56.412Z,8.54
2024-03-05T05:42:59.820Z,8.49
2024-03-05T05:44:01.627Z,8.44
2024-03-05T05:45:09.822Z,8.45
2024-03-05T05:46:20.324Z,8.47
2024-03-05T05:47:22.109Z,8.37
2024-03-05T05:48:29.494Z,8.30
2024-03-05T05:49:33.567Z,8.26
2024-03-05T05:50:35.263Z,8.31
2024-03-05T05:51:37.220Z,8.31
2024-03-05T05:52:39.033Z,8.26
2024-03-05T05:53:40.633Z,8.26
2024-03-05T05:54:44.937Z,8.25
2024-03-05T05:55:46.711Z,8.23
2024-03-05T05:56:49.574Z,8.23
2024-03-05T05:57:52.973Z,8.19
2024-03-05T05:58:55.267Z,8.24
2024-03-05T05:59:57.157Z,8.26
2024-03-05T06:00:58.730Z,8.25
2024-03-05T06:02:00.750Z,8.32
2024-03-05T06:03:04.500Z,8.37
2024-03-05T06:04:08.857Z,8.29
2024-03-05T06:05:10.536Z,8.21
2024-03-05T06:06:18.080Z,8.19
2024-03-05T06:07:19.889Z,8.24
2024-03-05T06:08:21.867Z,8.25
2024-03-05T06:09:29.438Z,8.34
2024-03-05T06:10:31.794Z,8.29
2024-03-05T06:11:33.627Z,8.24
2024-03-05T06:12:35.955Z,8.32
2024-03-05T06:13:37.632Z,8.34
2024-03-05T06:14:39.214Z,8.36
2024-03-05T06:15:40.987Z,8.30
2024-03-05T06:16:42.635Z,8.24
2024-03-05T06:17:44.756Z,8.24
2024-03-05T06:18:46.384Z,8.30
2024-03-05T06:19:47.903Z,8.29
2024-03-05T06:20:49.547Z,8.30
2024-03-05T06:21:51.340Z,8.29
2024-03-05T06:22:53.162Z,8.27
2024-03-05T06:23:54.758Z,8.25
2024-03-05T06:24:56.365Z,8.24
2024-03-05T06:25:58.026Z,8.28
2024-03-05T06:26:59.809Z,8.34
2024-03-05T06:28:01.452Z,8.34
2024-03-05T06:29:07.846Z,8.26
2024-03-05T06:30:14.443Z,8.18
2024-03-05T06:31:17.219Z,8.18
2024-03-05T06:32:19.046Z,8.15
2024-03-05T06:33:20.663Z,8.15
2024-03-05T06:34:22.248Z,8.16
2024-03-05T06:35:26.425Z,8.10
2024-03-05T06:36:28.562Z,8.10
2024-03-05T06:37:30.916Z,8.08
2024-03-05T06:38:32.932Z,8.12
2024-03-05T06:39:36.634Z,8.13
2024-03-05T06:40:38.221Z,8.23
2024-03-05T06:41:39.768Z,8.29
2024-03-05T06:43:04.284Z,8.26
2024-03-05T06:44:11.710Z,8.27
2024-03-05T06:45:16.293Z,8.30
2024-03-05T06:46:18.827Z,8.29
2024-03-05T06:47:28.376Z,8.37
2024-03-05T06:48:32.148Z,8.43
2024-03-05T06:49:40.026Z,8.46
2024-03-05T06:50:44.605Z,8.43
2024-03-05T06:51:58.106Z,8.45
2024-03-05T06:53:18.408Z,8.45
2024-03-05T06:54:39.627Z,8.41
2024-03-05T06:56:01.378Z,8.40
2024-03-05T06:57:03.445Z,8.34
2024-03-05T06:58:05.616Z,8.32
2024-03-05T06:59:07.600Z,8.35
2024-03-05T07:00:16.839Z,8.41
2024-03-05T07:01:21.666Z,8.43
2024-03-05T07:02:24.822Z,8.50
2024-03-05T07:03:26.735Z,8.52
2024-03-05T07:04:28.553Z,8.53
2024-03-05T07:05:30.116Z,8.51
2024-03-05T07:06:31.831Z,8.53
2024-03-05T07:07:34.544Z,8.58
2024-03-05T07:08:44.110Z,8.59
2024-03-05T07:09:46.068Z,8.59
2024-03-05T07:10:48.451Z,8.58
2024-03-05T07:11:50.180Z,8.59
2024-03-05T07:12:52.445Z,8.62
2024-03-05T07:13:55.352Z,8.63
2024-03-05T07:14:56.968Z,8.63
2024-03-05T07:15:58.397Z,8.61
2024-03-05T07:16:59.910Z,8.72
2024-03-05T07:18:02.895Z,8.75
2024-03-05T07:19:04.733Z,8.77
2024-03-05T07:20:16.785Z,8.82
2024-03-05T07:21:21.379Z,8.76
2024-03-05T07:22:24.378Z,8.91
2024-03-05T07:23:30.019Z,8.89
2024-03-05T07:24:31.628Z,8.91
2024-03-05T07:25:33.200Z,8.85
2024-03-05T07:26:36.017Z,8.89
2024-03-05T07:27:37.704Z,9.02
2024-03-05T07:28:39.627Z,9.07
2024-03-05T07:29:41.149Z,9.05
2024-03-05T07:30:43.769Z,9.08
2024-03-05T07:31:45.431Z,9.18
2024-03-05T07:32:49.058Z,9.30
2024-03-05T07:33:53.341Z,9.25
2024-03-05T07:35:06.566Z,9.26
2024-03-05T07:36:08.203Z,9.28
2024-03-05T07:37:09.861Z,9.26
2024-03-05T07:38:24.109Z,9.19
2024-03-05T07:39:25.987Z,9.18
2024-03-05T07:40:27.674Z,9.26
2024-03-05T07:41:34.119Z,9.23
2024-03-05T07:42:42.418Z,9.20
2024-03-05T07:43:44.112Z,9.31
2024-03-05T07:44:45.733Z,9.42
2024-03-05T07:45:49.483Z,9.62
2024-03-05T07:46:52.512Z,9.66
2024-03-05T07:47:54.285Z,9.80
2024-03-05T07:48:55.990Z,9.89
2024-03-05T07:49:57.701Z,9.88
2024-03-05T07:50:59.320Z,9.83
2024-03-05T07:52:01.038Z,9.74
2024-03-05T07:53:03.675Z,9.74
2024-03-05T07:54:14.803Z,9.90
2024-03-05T07:55:28.980Z,9.87
2024-03-05T07:57:56.892Z,9.99
2024-03-05T08:01:58.984Z,9.67
2024-03-05T08:03:00.785Z,9.69
2024-03-05T08:04:02.571Z,9.71
2024-03-05T08:05:05.524Z,9.52
2024-03-05T08:06:07.172Z,9.65
2024-03-05T08:07:08.706Z,9.63
2024-03-05T08:08:10.900Z,9.47
2024-03-05T08:09:13.383Z,9.28
2024-03-05T08:10:17.892Z,9.39
2024-03-05T08:11:19.677Z,9.39
2024-03-05T08:12:22.789Z,9.39
2024-03-05T08:13:24.446Z,9.45
2024-03-05T08:14:25.966Z,9.51
2024-03-05T08:15:27.713Z,9.52
2024-03-05T08:16:34.842Z,9.29
2024-03-05T08:17:37.846Z,9.29
2024-03-05T08:18:40.715Z,9.30
2024-03-05T08:19:42.831Z,9.30
2024-03-05T08:20:44.343Z,9.34
2024-03-05T08:21:45.881Z,9.32
2024-03-05T08:22:48.150Z,9.35
2024-03-05T08:23:52.342Z,9.41
2024-03-05T08:24:53.896Z,9.55
2024-03-05T08:25:55.600Z,9.62
2024-03-05T08:26:58.498Z,9.72
2024-03-05T08:28:00.234Z,9.88
2024-03-05T08:29:02.001Z,9.86
2024-03-05T08:30:04.574Z,9.79
2024-03-05T08:31:09.374Z,9.95
2024-03-05T08:32:10.915Z,10.04
2024-03-05T08:33:14.956Z,9.92
2024-03-05T08:34:16.663Z,9.89
2024-03-05T08:35:23.339Z,9.92
2024-03-05T08:36:26.620Z,9.97
2024-03-05T08:37:28.700Z,10.14
2024-03-05T08:38:30.633Z,10.14
2024-03-05T08:39:37.140Z,10.22
2024-03-05T08:40:38.757Z,10.21
2024-03-05T08:41:47.742Z,10.22
2024-03-05T08:42:57.916Z,9.96
2024-03-05T08:43:59.645Z,9.91
2024-03-05T08:45:01.371Z,9.92
2024-03-05T08:46:05.545Z,9.96
2024-03-05T08:47:08.204Z,10.06
2024-03-05T08:48:12.020Z,10.07
2024-03-05T08:49:13.758Z,9.96
2024-03-05T08:50:15.858Z,10.09
2024-03-05T08:51:19.076Z,10.15
2024-03-05T08:52:21.480Z,10.09
2024-03-05T08:53:23.351Z,9.83
2024-03-05T08:54:24.960Z,9.66
2024-03-05T08:55:27.436Z,9.84
2024-03-05T08:56:29.472Z,9.92
2024-03-05T08:57:31.107Z,10.03
2024-03-05T08:58:33.001Z,10.05
2024-03-05T08:59:35.467Z,10.11
2024-03-05T09:00:42.712Z,10.24
2024-03-05T09:01:45.527Z,10.37
2024-03-05T09:02:47.612Z,10.49
2024-03-05T09:03:49.204Z,10.64
2024-03-05T09:04:52.548Z,10.77
2024-03-05T09:05:54.263Z,10.87
2024-03-05T09:06:55.927Z,10.79
2024-03-05T09:07:57.589Z,10.83
2024-03-05T09:08:59.486Z,10.88
2024-03-05T09:10:01.039Z,10.83
2024-03-05T09:11:06.670Z,10.85
2024-03-05T09:12:08.509Z,10.89
2024-03-05T09:13:10.185Z,11.02
2024-03-05T09:14:12.213Z,11.00
2024-03-05T09:15:17.589Z,11.00
2024-03-05T09:16:19.423Z,10.94
2024-03-05T09:17:22.467Z,10.92
2024-03-05T09:18:24.049Z,10.97
2024-03-05T09:19:25.746Z,11.03
2024-03-05T09:20:27.351Z,11.07
2024-03-05T09:21:29.798Z,10.99
2024-03-05T09:22:31.821Z,10.95
2024-03-05T09:23:33.887Z,10.92
2024-03-05T09:24:36.551Z,11.04
2024-03-05T09:25:44.183Z,11.18
2024-03-05T09:43:05.267Z,11.11
2024-03-05T09:44:09.206Z,11.08
2024-03-05T09:45:16.190Z,11.11
2024-03-05T09:46:19.157Z,11.15
2024-03-05T09:47:21.631Z,11.02
2024-03-05T09:48:23.516Z,10.96
2024-03-05T09:49:26.350Z,10.90
2024-03-05T09:50:28.431Z,10.81
2024-03-05T09:51:31.313Z,10.89
2024-03-05T09:52:35.238Z,10.92
2024-03-05T09:53:38.164Z,11.04
2024-03-05T09:54:40.205Z,11.13
2024-03-05T09:55:42.180Z,11.15
2024-03-05T09:56:48.269Z,11.33
2024-03-05T09:57:50.540Z,11.45
2024-03-05T09:58:53.362Z,11.49
2024-03-05T09:59:55.875Z,11.28
2024-03-05T10:01:00.587Z,11.37
2024-03-05T10:02:02.814Z,11.28
2024-03-05T10:03:05.034Z,11.28
2024-03-05T10:04:12.452Z,11.41
2024-03-05T10:05:17.351Z,11.38
2024-03-05T10:06:19.449Z,11.37
2024-03-05T10:07:27.451Z,11.32
2024-03-05T10:08:29.826Z,11.37
2024-03-05T10:09:31.646Z,11.54
2024-03-05T10:10:36.009Z,11.55
2024-03-05T10:11:38.463Z,11.36
2024-03-05T10:14:13.343Z,11.16
2024-03-05T10:15:30.214Z,11.07
2024-03-05T10:16:40.624Z,11.04
2024-03-05T10:19:21.130Z,10.88
2024-03-05T10:23:01.408Z,10.99
2024-03-05T10:24:08.291Z,10.85
2024-03-05T10:26:36.240Z,10.81
2024-03-05T10:27:37.839Z,10.50
2024-03-05T10:28:39.473Z,10.52
2024-03-05T10:29:42.179Z,10.52
2024-03-05T10:30:44.254Z,10.54
2024-03-05T10:31:48.215Z,10.36
2024-03-05T10:32:56.415Z,10.23
2024-03-05T10:33:58.092Z,10.13
2024-03-05T10:35:00.818Z,10.23
2024-03-05T10:36:02.532Z,10.26
2024-03-05T10:37:05.407Z,10.36
2024-03-05T10:38:11.286Z,10.56
2024-03-05T10:39:14.180Z,10.61
2024-03-05T10:40:16.440Z,10.79
2024-03-05T10:41:53.714Z,10.95
2024-03-05T10:42:59.961Z,11.01
2024-03-05T10:44:02.132Z,11.10
2024-03-05T10:45:04.118Z,11.10
2024-03-05T10:46:05.785Z,10.96
2024-03-05T10:47:09.640Z,10.99
2024-03-05T10:48:13.503Z,10.94
2024-03-05T10:49:15.786Z,10.98
2024-03-05T10:50:19.398Z,11.05
2024-03-05T10:51:22.686Z,11.02
2024-03-05T10:52:28.330Z,10.94
2024-03-05T10:53:33.018Z,10.88
2024-03-05T10:54:38.620Z,10.91
2024-03-05T10:55:44.393Z,10.83
2024-03-05T10:56:46.735Z,10.93
2024-03-05T10:58:11.418Z,10.89
2024-03-05T10:59:31.512Z,10.95
2024-03-05T11:00:36.779Z,11.10
2024-03-05T11:01:40.686Z,11.14
2024-03-05T11:02:43.111Z,11.38
2024-03-05T11:03:46.172Z,11.48
2024-03-05T11:04:49.872Z,11.49
2024-03-05T11:05:53.240Z,11.69
2024-03-05T11:06:59.704Z,11.78
2024-03-05T11:08:02.301Z,11.79
2024-03-05T11:09:08.818Z,11.91
2024-03-05T11:10:13.523Z,11.96
2024-03-05T11:11:22.443Z,12.05
2024-03-05T11:12:24.951Z,11.97
2024-03-05T11:13:28.406Z,11.86
2024-03-05T11:14:31.525Z,11.86
2024-03-05T11:15:34.021Z,11.95
2024-03-05T11:16:35.723Z,12.08
2024-03-05T11:17:37.659Z,12.07
2024-03-05T11:18:40.377Z,12.15
2024-03-05T11:19:46.474Z,12.16
2024-03-05T11:20:48.668Z,12.14
2024-03-05T11:21:50.197Z,11.92
2024-03-05T11:22:52.691Z,11.93
2024-03-05T11:23:56.319Z,11.90
2024-03-05T11:25:02.232Z,12.02
2024-03-05T11:26:07.949Z,12.15
2024-03-05T11:27:13.542Z,12.13
2024-03-05T11:28:19.523Z,12.08
2024-03-05T11:29:27.463Z,12.29
2024-03-05T11:30:30.119Z,12.33
2024-03-05T11:31:31.968Z,12.21
2024-03-05T11:32:40.490Z,12.12
2024-03-05T11:33:42.245Z,12.08
2024-03-05T11:34:47.952Z,12.01
2024-03-05T11:35:49.543Z,12.12
2024-03-05T11:37:13.218Z,12.25
2024-03-05T11:38:20.005Z,12.13
2024-03-05T11:39:21.538Z,12.17
2024-03-05T11:40:35.425Z,12.11
2024-03-05T11:41:39.351Z,12.25
2024-03-05T11:42:47.909Z,12.23
2024-03-05T11:43:53.750Z,12.29
2024-03-05T11:44:55.374Z,12.27
2024-03-05T11:45:57.762Z,12.27
2024-03-05T11:46:59.669Z,12.31
2024-03-05T11:48:03.530Z,12.36
2024-03-05T11:49:06.084Z,12.35
2024-03-05T11:50:08.044Z,12.19
2024-03-05T11:51:09.814Z,12.13
2024-03-05T11:52:11.483Z,12.09
2024-03-05T11:53:16.585Z,12.07
2024-03-05T11:54:21.826Z,11.80
2024-03-05T11:55:26.184Z,11.90
2024-03-05T11:56:27.839Z,11.86
2024-03-05T11:57:29.361Z,11.84
2024-03-05T11:58:31.340Z,11.82
2024-03-05T11:59:50.295Z,11.86
2024-03-05T12:01:01.534Z,11.78
2024-03-05T12:02:09.225Z,11.71
2024-03-05T12:03:23.669Z,11.52
2024-03-05T12:04:29.409Z,11.43
2024-03-05T12:05:40.099Z,11.42
2024-03-05T12:06:51.480Z,11.46
2024-03-05T12:08:10.905Z,11.51
2024-03-05T12:09:20.308Z,11.46
2024-03-05T12:10:22.043Z,11.42
2024-03-05T12:11:23.927Z,11.40
2024-03-05T12:12:26.018Z,11.42
2024-03-05T12:13:28.473Z,11.44
2024-03-05T12:14:32.516Z,11.51
2024-03-05T12:15:36.661Z,11.57
2024-03-05T12:16:38.785Z,11.58
2024-03-05T12:17:42.008Z,11.59
2024-03-05T12:18:43.736Z,11.68
2024-03-05T12:19:47.815Z,11.78
2024-03-05T12:20:49.419Z,11.89
2024-03-05T12:21:50.975Z,11.95
2024-03-05T12:22:56.296Z,12.11
2024-03-05T12:24:00.156Z,12.32
2024-03-05T12:25:01.733Z,12.54
2024-03-05T12:26:04.817Z,12.56
2024-03-05T12:27:08.179Z,12.73
2024-03-05T12:28:10.408Z,12.91
2024-03-05T12:29:12.044Z,13.03
2024-03-05T12:30:14.191Z,13.02
2024-03-05T12:31:16.848Z,12.94
2024-03-05T12:32:19.777Z,13.03
2024-03-05T12:33:23.560Z,12.96
2024-03-05T12:34:27.013Z,12.86
2024-03-05T12:35:29.270Z,12.91
2024-03-05T12:36:30.859Z,13.02
2024-03-05T12:37:32.514Z,12.94
2024-03-05T12:38:34.160Z,12.61
2024-03-05T12:39:36.954Z,12.62
2024-03-05T12:40:38.618Z,12.66
2024-03-05T12:41:41.942Z,12.52
2024-03-05T12:42:47.574Z,12.65
2024-03-05T12:43:53.428Z,12.66
2024-03-05T12:45:11.131Z,12.82
2024-03-05T12:46:19.189Z,13.01
2024-03-05T12:47:21.078Z,13.15
2024-03-05T12:48:29.197Z,13.25
2024-03-05T12:49:33.225Z,13.41
2024-03-05T12:50:36.055Z,13.60
2024-03-05T12:51:37.580Z,13.75
2024-03-05T12:52:39.235Z,13.79
2024-03-05T12:53:42.144Z,13.75
2024-03-05T12:54:43.882Z,13.90
2024-03-05T12:55:45.489Z,14.02
2024-03-05T12:56:47.626Z,13.86
2024-03-05T12:57:49.176Z,13.97
2024-03-05T12:58:50.731Z,13.98
2024-03-05T12:59:52.480Z,14.01
2024-03-05T13:00:56.685Z,14.02
2024-03-05T13:01:59.645Z,13.96
2024-03-05T13:03:05.830Z,13.87
2024-03-05T13:04:07.363Z,13.78
2024-03-05T13:05:09.691Z,13.81
2024-03-05T13:06:12.385Z,13.84
2024-03-05T13:07:14.248Z,13.77
2024-03-05T13:08:15.909Z,13.72
2024-03-05T13:09:22.733Z,13.67
2024-03-05T13:10:24.430Z,13.67
2024-03-05T13:11:26.168Z,13.81
2024-03-05T13:12:28.771Z,13.74
2024-03-05T13:13:30.639Z,13.07
2024-03-05T13:14:32.361Z,13.28
2024-03-05T13:15:33.988Z,13.36
2024-03-05T13:16:35.848Z,13.30
2024-03-05T13:17:37.368Z,13.49
2024-03-05T13:18:38.916Z,13.53
2024-03-05T13:19:40.587Z,13.65
2024-03-05T13:20:42.690Z,13.74
2024-03-05T13:21:44.541Z,14.02
2024-03-05T13:22:54.875Z,13.90
2024-03-05T13:23:57.662Z,13.95
2024-03-05T13:24:59.186Z,13.67
2024-03-05T13:26:00.848Z,13.78
2024-03-05T13:27:04.471Z,13.96
2024-03-05T13:28:06.629Z,13.90
2024-03-05T13:29:09.870Z,13.94
2024-03-05T13:30:17.728Z,13.94
2024-03-05T13:31:19.298Z,13.79
2024-03-05T13:32:21.437Z,13.86
2024-03-05T13:33:24.901Z,13.80
2024-03-05T13:34:27.070Z,13.62
2024-03-05T13:35:28.580Z,13.60
2024-03-05T13:36:30.358Z,13.51
2024-03-05T13:37:35.240Z,13.46
2024-03-05T13:38:36.727Z,13.18
2024-03-05T13:39:44.975Z,13.09
2024-03-05T13:40:46.531Z,13.07
2024-03-05T13:41:49.558Z,13.06
2024-03-05T13:42:51.274Z,13.12
2024-03-05T13:43:52.897Z,13.19
2024-03-05T13:44:55.233Z,13.24
2024-03-05T13:45:58.547Z,13.22
2024-03-05T13:47:00.225Z,12.98
2024-03-05T13:48:01.859Z,12.92
2024-03-05T13:49:03.473Z,12.83
2024-03-05T13:50:13.033Z,12.74
2024-03-05T13:51:15.448Z,12.60
2024-03-05T13:52:16.921Z,12.56
2024-03-05T13:53:45.300Z,12.48
2024-03-05T13:54:46.847Z,12.44
2024-03-05T13:55:57.895Z,12.34
2024-03-05T13:57:00.624Z,12.29
2024-03-05T13:58:05.276Z,12.48
2024-03-05T13:59:06.942Z,12.49
2024-03-05T14:00:10.745Z,12.55
2024-03-05T14:01:12.704Z,12.45
2024-03-05T14:02:14.767Z,12.27
2024-03-05T14:03:16.340Z,12.19
2024-03-05T14:04:17.884Z,12.12
2024-03-05T14:05:19.663Z,12.20
2024-03-05T14:06:22.015Z,11.99
2024-03-05T14:07:26.237Z,12.08
2024-03-05T14:08:29.923Z,12.08
2024-03-05T14:09:31.697Z,12.07
2024-03-05T14:10:35.140Z,11.82
2024-03-05T14:11:36.966Z,11.63
2024-03-05T14:12:42.439Z,11.54
2024-03-05T14:13:48.113Z,11.39
2024-03-05T14:14:49.665Z,11.37
2024-03-05T14:15:52.078Z,11.49
2024-03-05T14:16:53.721Z,11.63
2024-03-05T14:17:55.297Z,11.65
2024-03-05T14:18:57.000Z,11.59
2024-03-05T14:19:58.626Z,11.35
2024-03-05T14:21:00.721Z,11.31
2024-03-05T14:22:02.424Z,11.20